Riverton, WY

5:41 AM MDT on October 23, 2014 (GMT -0600)
Logan Park | Change Station
CLOSE
Current Station
Personal Weather Station
Location: Riverton, WY
Elevation: 4984 ft
Nearby Weather Stations

Elev 4984 ft 43.04 °N, 108.39 °W | Updated 18 seconds ago

Clear
Clear
34.0 °F
Feels Like 34 °F
N
0.0
Wind Variable Wind from South
Gusts 3.0 mph

Today
High -- | Low -- °F
--% Chance of Precip.
Yesterday
High -- | Low -- °F
Precip. -- in
7:37 AM 6:18 PM
Waning Crescent, 0% visible
Pressure 30.03 in
Visibility 10.0 miles
Clouds Clear
Windchill 34 °F
Dew Point 23 °F
Humidity 60%
Rainfall 0.00 in
Snow Depth Not available.
UV 0 out of 12
Pollen 2.20 out of 12
Air Quality Not available.
Flu Activity Sporadic
METAR KRIW 231053Z AUTO 24009KT 10SM CLR 03/M08 A3009 RMK AO2 SLP168 T00331078

More Conditions Fewer Conditions

Pressure 30.03 in
Visibility 10.0 miles
Clouds Clear
Windchill 34 °F
Dew Point 23 °F
Humidity 60%
Rainfall 0.00 in
Snow Depth Not available.
UV 0 out of 12
Pollen 2.20 out of 12
Air Quality Not available.
Flu Activity Sporadic
METAR KRIW 231053Z AUTO 24009KT 10SM CLR 03/M08 A3009 RMK AO2 SLP168 T00331078

More Conditions Fewer Conditions

10-Day Weather Forecast

Almanac

Astronomy

Oct. 23, 2014 Rise Set
Actual Time 7:37 AM MDT 6:18 PM MDT
Civil Twilight 7:08 AM MDT 6:47 PM MDT
Nautical Twilight 6:34 AM MDT 7:20 PM MDT
Astronomical Twilight 6:01 AM MDT 7:53 PM MDT
Moon 7:19 AM MDT 6:21 PM MDT
Length of Visible Light 11h 39m
Length of Day
10h 40m
Tomorrow will be 2m 44s shorter.
Waning Crescent, 0% of the Moon is Illuminated
Today
Waning Crescent
Oct 23
New
Oct 30
First Quarter
Nov 6
Full
Nov 14
Last Quarter

Today's Extremes

State Highs State Lows

Community

WunderPhotos

Upload Photos

1,764,209 photos uploaded!

Nearby

Snow Depth

Station Depth Elevation
Townsend Creek 0 in 8700 ft
Big Sandy Opening 1 in 9080 ft
Gunsight Pass 1 in 9820 ft
New Fork Lake 0 in 8340 ft
Kendall R.S. 1 in 7740 ft

Earthquake Activity

City Distance Mag. Time & Date
No recent earthquake activity has been reported nearby.
Minimum magnitude displayed is 2.5.

Coastal Water Temperatures

Place Temperature
No Stations Reporting

Nearby Weather Stations